Time;durP1;ratioP1;P1;durP2;ratioP2;P2;SDS_P1;SDS_P2;PMS_P1;PMS_P2;Temp;Humidity;BMP_temperature;BMP_pressure;BME280_temperature;BME280_humidity;BME280_pressure;Samples;Min_cycle;Max_cycle;Signal;HPM_P1;HPM_P2
2022/10/17 00:00:49;;;;;;;8.60;4.72;;;13.30;99.90;;;;;;5065190;28;20382;-56
2022/10/17 00:03:15;;;;;;;8.00;5.07;;;13.20;99.90;;;;;;5063042;28;20072;-53
2022/10/17 00:05:43;;;;;;;7.57;4.95;;;13.20;99.90;;;;;;5065355;28;20124;-56
2022/10/17 00:08:09;;;;;;;7.72;5.13;;;13.20;99.90;;;;;;5061836;28;20037;-55
2022/10/17 00:10:36;;;;;;;8.27;4.70;;;13.20;99.90;;;;;;5065082;28;20122;-52
2022/10/17 00:13:02;;;;;;;7.32;4.45;;;13.10;99.90;;;;;;5065677;28;20421;-54
2022/10/17 00:15:28;;;;;;;8.45;5.07;;;13.10;99.90;;;;;;5061362;28;20918;-55
2022/10/17 00:17:53;;;;;;;11.10;4.88;;;13.10;99.90;;;;;;5064424;28;20103;-53
2022/10/17 00:20:19;;;;;;;7.07;5.00;;;13.10;99.90;;;;;;5062936;28;20051;-55
2022/10/17 00:22:45;;;;;;;8.00;5.47;;;13.10;99.90;;;;;;5058627;28;20047;-55
2022/10/17 00:25:11;;;;;;;7.18;5.22;;;13.10;99.90;;;;;;5065018;28;20478;-54
2022/10/17 00:27:38;;;;;;;9.10;5.43;;;13.10;99.90;;;;;;5062920;28;20524;-55
2022/10/17 00:30:06;;;;;;;7.35;4.88;;;13.10;99.90;;;;;;5066073;28;20474;-52
2022/10/17 00:32:31;;;;;;;;;;;13.10;99.90;;;;;;5071680;28;20119;-55
2022/10/17 00:34:57;;;;;;;9.73;5.40;;;13.10;99.90;;;;;;5070370;28;20418;-55
2022/10/17 00:37:23;;;;;;;7.60;5.15;;;13.10;99.90;;;;;;5069470;28;20036;-54
2022/10/17 00:39:49;;;;;;;7.78;5.10;;;13.10;99.90;;;;;;5066548;28;20445;-54
2022/10/17 00:42:15;;;;;;;7.97;5.93;;;13.20;99.90;;;;;;5065801;28;20123;-56
2022/10/17 00:44:40;;;;;;;6.80;5.60;;;13.20;99.90;;;;;;5067104;28;20036;-55
2022/10/17 00:47:13;;;;;;;6.95;5.35;;;13.20;99.90;;;;;;5070322;28;20040;-55
2022/10/17 00:49:39;;;;;;;7.85;5.60;;;13.30;99.90;;;;;;5072389;28;20143;-56
2022/10/17 00:52:16;;;;;;;9.63;5.95;;;13.30;99.90;;;;;;5069232;28;20402;-55
2022/10/17 00:54:50;;;;;;;8.65;5.60;;;13.30;99.90;;;;;;5066799;28;20040;-55
2022/10/17 00:57:16;;;;;;;8.10;5.95;;;13.30;99.90;;;;;;5050262;28;20398;-56
2022/10/17 00:59:44;;;;;;;7.82;5.53;;;13.20;99.90;;;;;;5067169;28;20079;-56
2022/10/17 01:02:16;;;;;;;7.55;5.30;;;13.20;99.90;;;;;;5068789;28;20505;-56
2022/10/17 01:04:46;;;;;;;7.43;5.65;;;13.10;99.90;;;;;;5068967;28;20383;-56
2022/10/17 01:07:11;;;;;;;10.77;6.13;;;13.20;99.90;;;;;;5065796;28;20051;-55
2022/10/17 01:09:38;;;;;;;8.18;6.10;;;13.10;99.90;;;;;;5068116;28;20406;-55
2022/10/17 01:12:22;;;;;;;8.55;6.13;;;13.10;99.90;;;;;;5062204;28;20040;-55
2022/10/17 01:15:11;;;;;;;6.97;6.28;;;13.00;99.90;;;;;;5066958;28;20158;-55
2022/10/17 01:18:10;;;;;;;10.60;6.53;;;13.00;99.90;;;;;;5067860;28;20040;-55
2022/10/17 01:21:09;;;;;;;10.10;6.90;;;12.90;99.90;;;;;;5065954;28;20053;-55
2022/10/17 01:23:57;;;;;;;8.48;6.43;;;12.90;99.90;;;;;;5062508;28;20068;-54
2022/10/17 01:26:46;;;;;;;;;;;12.90;99.90;;;;;;5063860;28;20193;-54
2022/10/17 01:29:23;;;;;;;9.88;7.13;;;12.90;99.90;;;;;;5066913;28;19924;-55
2022/10/17 01:32:00;;;;;;;7.68;6.88;;;12.80;99.90;;;;;;5070083;28;20097;-52
2022/10/17 01:34:45;;;;;;;8.00;7.30;;;12.80;99.90;;;;;;5067240;28;20048;-53
2022/10/17 01:37:30;;;;;;;11.82;7.82;;;12.80;99.90;;;;;;5066636;28;20032;-54
2022/10/17 01:40:24;;;;;;;10.13;7.75;;;12.80;99.90;;;;;;5069272;28;20384;-56
2022/10/17 01:43:18;;;;;;;9.25;8.38;;;12.70;99.90;;;;;;5067750;28;20048;-54
2022/10/17 01:45:47;;;;;;;11.40;8.73;;;12.80;99.90;;;;;;5064499;28;20052;-55
2022/10/17 01:48:23;;;;;;;12.27;8.63;;;12.70;99.90;;;;;;5068210;28;20048;-54
2022/10/17 01:51:09;;;;;;;9.13;8.32;;;12.80;99.90;;;;;;5070071;28;20036;-55
2022/10/17 01:53:41;;;;;;;10.73;8.30;;;12.70;99.90;;;;;;5059160;28;20170;-52
2022/10/17 01:56:09;;;;;;;10.85;9.75;;;12.70;99.90;;;;;;5072756;28;20052;-53
2022/10/17 01:58:36;;;;;;;;;;;12.70;99.90;;;;;;5065833;28;20040;-54
2022/10/17 02:01:05;;;;;;;9.35;8.45;;;12.70;99.90;;;;;;5071776;28;19920;-54
2022/10/17 02:03:33;;;;;;;9.90;8.93;;;12.70;99.90;;;;;;5066929;28;20036;-55
2022/10/17 02:05:59;;;;;;;10.65;9.20;;;12.70;99.90;;;;;;5068028;28;20041;-55
2022/10/17 02:08:46;;;;;;;9.68;8.77;;;12.70;99.90;;;;;;5065738;28;20048;-53
2022/10/17 02:11:14;;;;;;;11.88;9.55;;;12.70;99.90;;;;;;5064393;28;20244;-54
2022/10/17 02:14:11;;;;;;;10.17;9.17;;;12.80;99.90;;;;;;5065190;28;20036;-55
2022/10/17 02:16:38;;;;;;;11.07;10.00;;;12.80;99.90;;;;;;5066350;28;20045;-54
2022/10/17 02:19:16;;;;;;;10.63;9.60;;;12.80;99.90;;;;;;5062514;28;20056;-54
2022/10/17 02:21:47;;;;;;;10.25;9.30;;;12.70;99.90;;;;;;5063356;28;20052;-56
2022/10/17 02:24:34;;;;;;;13.00;10.30;;;12.70;99.90;;;;;;5067499;28;20548;-54
2022/10/17 02:27:08;;;;;;;13.93;11.02;;;12.80;99.90;;;;;;5062860;28;20079;-55
2022/10/17 02:29:48;;;;;;;11.57;10.52;;;12.80;99.90;;;;;;5069845;28;20050;-55
2022/10/17 02:32:38;;;;;;;11.75;10.65;;;12.80;99.90;;;;;;5069945;28;20044;-52
2022/10/17 02:35:08;;;;;;;13.10;11.25;;;12.80;99.90;;;;;;5067149;28;20512;-55
2022/10/17 02:37:35;;;;;;;13.10;11.05;;;12.80;99.90;;;;;;5065742;28;20039;-55
2022/10/17 02:40:03;;;;;;;12.88;11.60;;;12.80;99.90;;;;;;5067781;28;20044;-54
2022/10/17 02:42:30;;;;;;;13.30;11.48;;;12.80;99.90;;;;;;5065431;28;20495;-56
2022/10/17 02:45:00;;;;;;;14.50;12.15;;;12.80;99.90;;;;;;5064438;28;20042;-54
2022/10/17 02:47:36;;;;;;;12.98;11.63;;;12.80;99.90;;;;;;5066365;28;20079;-53
2022/10/17 02:50:04;;;;;;;12.18;10.95;;;12.90;99.90;;;;;;5064498;28;20057;-52
2022/10/17 02:52:43;;;;;;;12.88;11.68;;;12.80;99.90;;;;;;5065255;28;20044;-53
2022/10/17 02:55:29;;;;;;;12.90;11.57;;;12.90;99.90;;;;;;5066289;28;20045;-54
2022/10/17 02:58:05;;;;;;;13.52;12.18;;;12.90;99.90;;;;;;5063897;28;20054;-54
2022/10/17 03:00:31;;;;;;;13.07;11.60;;;12.90;99.90;;;;;;5063179;28;20704;-54
2022/10/17 03:02:57;;;;;;;18.35;13.07;;;12.90;99.90;;;;;;5068663;28;20044;-53
2022/10/17 03:05:28;;;;;;;13.65;12.23;;;12.90;99.90;;;;;;5063620;28;20048;-55
2022/10/17 03:07:54;;;;;;;14.38;12.90;;;12.90;99.90;;;;;;5064135;28;20040;-54
2022/10/17 03:10:21;;;;;;;14.35;12.90;;;12.90;99.90;;;;;;5068005;28;20093;-55
2022/10/17 03:12:46;;;;;;;14.05;12.68;;;12.90;99.90;;;;;;5067103;28;20431;-54
2022/10/17 03:15:13;;;;;;;14.02;12.82;;;12.90;99.90;;;;;;5064915;28;20037;-52
2022/10/17 03:17:38;;;;;;;14.15;12.93;;;12.80;99.90;;;;;;5066952;28;20085;-53
2022/10/17 03:20:05;;;;;;;14.30;12.90;;;12.80;99.90;;;;;;5063968;28;20036;-54
2022/10/17 03:22:31;;;;;;;14.18;12.77;;;12.80;99.90;;;;;;5062813;28;20123;-53
2022/10/17 03:24:57;;;;;;;15.43;13.65;;;12.80;99.90;;;;;;5065409;28;20057;-54
2022/10/17 03:27:22;;;;;;;13.93;12.63;;;12.80;99.90;;;;;;5058894;28;20045;-55
2022/10/17 03:29:48;;;;;;;13.48;12.25;;;12.70;99.90;;;;;;5068780;28;20048;-54
2022/10/17 03:32:14;;;;;;;15.07;13.50;;;12.70;99.90;;;;;;5069033;28;20386;-52
2022/10/17 03:34:39;;;;;;;14.57;13.23;;;12.80;99.90;;;;;;5066869;28;21526;-55
2022/10/17 03:37:05;;;;;;;14.27;12.88;;;12.70;99.90;;;;;;5068491;28;20113;-55
2022/10/17 03:39:30;;;;;;;14.88;13.40;;;12.70;99.90;;;;;;5066438;28;20486;-54
2022/10/17 03:41:56;;;;;;;16.45;14.52;;;12.70;99.90;;;;;;5062319;28;20064;-54
2022/10/17 03:44:22;;;;;;;16.13;14.18;;;12.70;99.90;;;;;;5067267;28;20029;-55
2022/10/17 03:46:47;;;;;;;16.75;14.98;;;12.70;99.90;;;;;;5064556;28;20041;-55
2022/10/17 03:49:13;;;;;;;16.00;13.52;;;12.70;99.90;;;;;;5066823;28;20055;-53
2022/10/17 03:51:38;;;;;;;16.17;13.93;;;12.60;99.90;;;;;;5063512;28;20128;-55
2022/10/17 03:54:04;;;;;;;14.95;13.57;;;12.70;99.90;;;;;;5063799;28;20478;-58
2022/10/17 03:56:30;;;;;;;16.90;15.10;;;12.70;99.90;;;;;;5064050;28;20039;-55
2022/10/17 03:58:55;;;;;;;14.45;13.05;;;12.70;99.90;;;;;;5064872;28;20083;-56
2022/10/17 04:01:22;;;;;;;18.05;16.00;;;12.60;99.90;;;;;;5063215;28;20483;-54
2022/10/17 04:03:49;;;;;;;16.25;14.75;;;12.60;99.90;;;;;;5064914;28;20037;-54
2022/10/17 04:06:15;;;;;;;16.92;14.60;;;12.70;99.90;;;;;;5060557;28;20058;-54
2022/10/17 04:08:41;;;;;;;16.40;14.80;;;12.60;99.90;;;;;;5062951;28;20036;-55
2022/10/17 04:11:09;;;;;;;16.63;15.02;;;12.60;99.90;;;;;;5062569;28;21827;-54
2022/10/17 04:13:35;;;;;;;;;;;12.70;99.90;;;;;;5065209;28;20037;-55
2022/10/17 04:16:07;;;;;;;17.15;15.35;;;12.70;99.90;;;;;;5060970;28;19920;-53
2022/10/17 04:18:33;;;;;;;16.17;14.57;;;12.60;99.90;;;;;;5067472;28;20041;-56
2022/10/17 04:21:03;;;;;;;16.42;14.75;;;12.60;99.90;;;;;;5061248;28;20445;-55
2022/10/17 04:23:28;;;;;;;17.50;15.82;;;12.60;99.90;;;;;;5062874;28;20453;-55
2022/10/17 04:25:59;;;;;;;17.95;16.17;;;12.70;99.90;;;;;;5066800;28;20048;-52
2022/10/17 04:28:26;;;;;;;17.65;15.90;;;12.70;99.90;;;;;;5064936;28;20032;-54
2022/10/17 04:30:59;;;;;;;18.90;17.00;;;12.60;99.90;;;;;;5067112;28;20040;-54
2022/10/17 04:33:25;;;;;;;18.08;16.17;;;12.70;99.90;;;;;;5065622;28;20482;-54
2022/10/17 04:36:10;;;;;;;18.38;16.48;;;12.60;99.90;;;;;;5063088;28;20093;-56
2022/10/17 04:38:36;;;;;;;17.98;16.08;;;12.70;99.90;;;;;;5066365;28;20041;-55
2022/10/17 04:41:05;;;;;;;17.48;15.77;;;12.70;99.90;;;;;;5067464;28;20448;-55
2022/10/17 04:43:32;;;;;;;18.60;16.65;;;12.70;99.90;;;;;;5064721;28;20823;-56
2022/10/17 04:45:58;;;;;;;18.40;16.43;;;12.80;99.90;;;;;;5064513;28;20047;-54
2022/10/17 04:48:24;;;;;;;18.00;16.10;;;12.80;99.90;;;;;;5061926;28;20794;-54
2022/10/17 04:50:54;;;;;;;19.02;16.92;;;12.80;99.90;;;;;;5062077;28;20064;-56
2022/10/17 04:53:20;;;;;;;20.35;18.15;;;12.80;99.90;;;;;;5065023;28;20490;-54
2022/10/17 04:55:46;;;;;;;18.25;16.35;;;12.90;99.90;;;;;;5067468;28;20072;-55
2022/10/17 04:58:11;;;;;;;23.33;18.13;;;13.00;99.90;;;;;;5065448;28;20118;-54
2022/10/17 05:00:37;;;;;;;21.17;18.98;;;13.10;99.90;;;;;;5064189;28;20430;-52
2022/10/17 05:03:02;;;;;;;21.13;18.90;;;13.00;99.90;;;;;;5048143;28;20052;-55
2022/10/17 05:05:28;;;;;;;18.02;16.40;;;13.10;99.90;;;;;;5064729;28;20526;-54
2022/10/17 05:07:54;;;;;;;18.80;16.88;;;13.20;99.90;;;;;;5063766;28;20048;-52
2022/10/17 05:10:19;;;;;;;20.17;17.23;;;13.20;99.90;;;;;;5060692;28;20078;-55
2022/10/17 05:12:47;;;;;;;18.52;16.63;;;13.20;99.90;;;;;;5064032;28;20037;-51
2022/10/17 05:15:12;;;;;;;18.48;16.60;;;13.20;99.90;;;;;;5061360;28;20040;-51
2022/10/17 05:17:38;;;;;;;18.55;16.58;;;13.30;99.90;;;;;;5067686;28;20040;-54
2022/10/17 05:20:04;;;;;;;18.63;16.20;;;13.30;99.90;;;;;;5071302;28;20046;-55
2022/10/17 05:22:30;;;;;;;17.58;15.98;;;13.30;99.90;;;;;;5065810;28;20138;-57
2022/10/17 05:24:55;;;;;;;19.52;17.42;;;13.30;99.90;;;;;;5071288;28;20071;-55
2022/10/17 05:27:21;;;;;;;19.45;17.23;;;13.40;99.90;;;;;;5060136;28;20400;-54
2022/10/17 05:29:47;;;;;;;17.85;16.05;;;13.40;99.90;;;;;;5065089;28;20393;-55
2022/10/17 05:32:13;;;;;;;18.90;17.00;;;13.30;99.90;;;;;;5067439;28;20036;-54
2022/10/17 05:34:39;;;;;;;18.20;16.30;;;13.30;99.90;;;;;;5066001;28;20751;-55
2022/10/17 05:37:04;;;;;;;19.83;17.25;;;13.40;99.90;;;;;;5068958;28;20044;-54
2022/10/17 05:39:30;;;;;;;18.80;16.90;;;13.50;99.90;;;;;;5063120;28;21424;-53
2022/10/17 05:41:55;;;;;;;18.08;16.10;;;13.50;99.90;;;;;;5066435;28;20039;-56
2022/10/17 05:44:21;;;;;;;21.38;17.13;;;13.80;99.90;;;;;;5069721;28;20029;-52
2022/10/17 05:46:50;;;;;;;20.42;17.38;;;13.90;99.90;;;;;;5048803;28;20052;-55
2022/10/17 05:49:16;;;;;;;18.63;16.23;;;14.00;99.90;;;;;;5071999;28;20052;-54
2022/10/17 05:51:41;;;;;;;19.08;16.08;;;14.20;99.90;;;;;;5066640;28;20056;-54
2022/10/17 05:54:07;;;;;;;19.30;16.52;;;14.20;99.90;;;;;;5071174;28;20456;-55
2022/10/17 05:56:34;;;;;;;20.00;15.68;;;14.40;99.90;;;;;;5068608;28;20462;-55
2022/10/17 05:58:59;;;;;;;18.38;15.30;;;14.50;99.90;;;;;;5067825;28;20438;-55
2022/10/17 06:01:25;;;;;;;18.35;15.95;;;14.60;99.90;;;;;;5069866;28;20032;-55
2022/10/17 06:03:51;;;;;;;15.70;14.07;;;14.70;99.90;;;;;;5068828;28;20033;-53
2022/10/17 06:06:17;;;;;;;16.63;14.88;;;14.80;99.90;;;;;;5067309;28;20072;-56
2022/10/17 06:08:43;;;;;;;17.95;14.32;;;14.80;99.90;;;;;;5064861;28;20366;-55
2022/10/17 06:11:10;;;;;;;15.13;13.63;;;15.00;99.90;;;;;;5066825;28;20390;-55
2022/10/17 06:13:36;;;;;;;15.43;13.93;;;15.10;99.90;;;;;;5063007;28;20041;-57
2022/10/17 06:16:02;;;;;;;14.63;12.98;;;15.00;99.90;;;;;;5063537;28;20111;-52
2022/10/17 06:18:28;;;;;;;17.00;13.05;;;15.10;99.90;;;;;;5064366;28;20058;-54
2022/10/17 06:20:53;;;;;;;14.05;12.32;;;15.20;99.90;;;;;;5063631;28;20070;-51
2022/10/17 06:23:19;;;;;;;14.05;12.57;;;15.20;99.90;;;;;;5065826;28;20040;-55
2022/10/17 06:25:45;;;;;;;17.85;13.45;;;15.30;99.90;;;;;;5064232;28;20049;-56
2022/10/17 06:28:11;;;;;;;16.45;12.95;;;15.30;99.90;;;;;;5065383;28;20051;-55
2022/10/17 06:30:39;;;;;;;14.20;12.70;;;15.40;99.90;;;;;;5068887;28;20436;-56
2022/10/17 06:33:04;;;;;;;15.05;12.45;;;15.40;99.90;;;;;;5067496;28;20071;-56
2022/10/17 06:35:30;;;;;;;14.90;12.60;;;15.40;99.90;;;;;;5063937;28;20106;-55
2022/10/17 06:37:56;;;;;;;13.27;11.90;;;15.40;99.90;;;;;;5065722;28;20079;-55
2022/10/17 06:40:22;;;;;;;17.83;12.48;;;15.40;99.90;;;;;;5065223;28;20029;-55
2022/10/17 06:42:47;;;;;;;13.50;11.98;;;15.40;99.90;;;;;;5065991;28;20070;-53
2022/10/17 06:45:13;;;;;;;14.02;11.90;;;15.40;99.90;;;;;;5063915;28;20041;-55
2022/10/17 06:47:39;;;;;;;13.52;12.13;;;15.40;99.90;;;;;;5064938;28;20489;-52
2022/10/17 06:50:05;;;;;;;14.35;11.88;;;15.50;99.90;;;;;;5064782;28;20052;-55
2022/10/17 06:52:31;;;;;;;16.38;11.55;;;15.40;99.90;;;;;;5070066;28;20032;-54
2022/10/17 06:54:56;;;;;;;13.05;11.50;;;15.50;99.90;;;;;;5062424;28;20394;-57
2022/10/17 06:57:22;;;;;;;14.68;10.98;;;15.70;99.90;;;;;;5065153;28;20052;-54
2022/10/17 06:59:47;;;;;;;12.05;10.52;;;15.70;99.90;;;;;;5062790;28;20071;-57
2022/10/17 07:02:13;;;;;;;12.32;10.48;;;15.80;99.90;;;;;;5064354;28;20090;-56
2022/10/17 07:04:39;;;;;;;11.70;10.45;;;15.90;99.90;;;;;;5063269;28;20121;-55
2022/10/17 07:07:04;;;;;;;13.90;11.02;;;15.90;99.90;;;;;;5066119;28;20127;-54
2022/10/17 07:09:31;;;;;;;14.95;11.68;;;16.00;99.90;;;;;;5063889;28;21518;-56
2022/10/17 07:11:58;;;;;;;12.67;11.33;;;16.10;99.90;;;;;;5067651;28;20037;-55
2022/10/17 07:14:30;;;;;;;15.02;10.40;;;16.10;99.90;;;;;;5067258;28;20291;-54
2022/10/17 07:16:59;;;;;;;11.43;10.18;;;16.20;99.90;;;;;;5065831;28;20078;-56
2022/10/17 07:19:25;;;;;;;12.27;10.30;;;16.20;99.90;;;;;;5046445;28;20388;-56
2022/10/17 07:21:52;;;;;;;11.43;9.52;;;16.20;99.90;;;;;;5064756;28;20094;-55
2022/10/17 07:24:17;;;;;;;11.63;9.82;;;16.30;99.90;;;;;;5062724;28;20172;-54
2022/10/17 07:26:43;;;;;;;10.90;9.32;;;16.50;99.90;;;;;;5065908;28;20124;-57
2022/10/17 07:29:09;;;;;;;13.52;9.68;;;16.60;99.90;;;;;;5064993;28;20033;-57
2022/10/17 07:31:35;;;;;;;14.88;9.55;;;16.70;99.90;;;;;;5065498;28;20037;-54
2022/10/17 07:34:00;;;;;;;9.73;8.23;;;16.70;99.90;;;;;;5068293;28;20373;-56
2022/10/17 07:36:26;;;;;;;10.75;9.10;;;16.90;99.90;;;;;;5060782;28;20041;-56
2022/10/17 07:38:52;;;;;;;10.15;8.60;;;17.00;99.90;;;;;;5063628;28;20051;-57
2022/10/17 07:41:18;;;;;;;10.98;8.43;;;17.00;99.90;;;;;;5057280;28;20067;-56
2022/10/17 07:43:44;;;;;;;9.75;8.35;;;17.10;99.90;;;;;;5057912;28;20044;-56
2022/10/17 07:46:10;;;;;;;12.80;8.00;;;17.10;99.90;;;;;;5056663;28;20029;-56
2022/10/17 07:48:37;;;;;;;9.40;7.35;;;17.20;99.90;;;;;;5056454;28;20056;-56
2022/10/17 07:51:04;;;;;;;9.10;8.20;;;17.20;99.90;;;;;;5061285;28;20032;-56
2022/10/17 07:53:30;;;;;;;9.23;7.88;;;17.20;99.90;;;;;;5059914;28;20047;-56
2022/10/17 07:55:56;;;;;;;13.95;8.02;;;17.10;99.90;;;;;;5061927;28;20032;-56
2022/10/17 07:58:21;;;;;;;10.90;7.70;;;17.10;99.90;;;;;;5066857;28;20699;-57
2022/10/17 08:00:47;;;;;;;9.88;8.93;;;17.10;99.90;;;;;;5064349;28;20046;-57
2022/10/17 08:03:13;;;;;;;11.20;8.13;;;17.10;99.90;;;;;;5061745;28;20124;-56
2022/10/17 08:05:39;;;;;;;10.82;7.53;;;17.00;99.90;;;;;;5053611;28;20454;-56
2022/10/17 08:08:05;;;;;;;9.90;7.75;;;17.10;99.90;;;;;;5065054;28;20036;-56
2022/10/17 08:10:30;;;;;;;11.43;8.48;;;17.10;99.90;;;;;;5056902;28;20048;-57
2022/10/17 08:12:57;;;;;;;9.60;7.88;;;17.00;99.90;;;;;;5060853;28;20040;-56
2022/10/17 08:15:24;;;;;;;8.68;7.55;;;17.10;99.90;;;;;;5058479;28;20115;-57
2022/10/17 08:17:50;;;;;;;9.30;7.93;;;17.10;99.90;;;;;;5061495;28;20053;-56
2022/10/17 08:20:16;;;;;;;10.00;7.50;;;;;;;;;;5063193;28;20040;-57
2022/10/17 08:22:42;;;;;;;8.48;7.65;;;17.20;99.90;;;;;;5056589;28;20040;-57
2022/10/17 08:25:08;;;;;;;11.15;7.72;;;17.20;99.90;;;;;;5057231;28;20048;-56
2022/10/17 08:27:34;;;;;;;9.18;7.80;;;17.20;99.90;;;;;;5055534;28;20037;-57
2022/10/17 08:30:00;;;;;;;12.98;7.95;;;17.20;99.90;;;;;;5061713;28;20079;-56
2022/10/17 08:32:27;;;;;;;10.35;7.72;;;17.20;99.90;;;;;;5058212;28;20037;-56
2022/10/17 08:34:54;;;;;;;11.85;8.18;;;17.30;99.90;;;;;;5057829;28;20053;-56
2022/10/17 08:37:23;;;;;;;11.05;7.55;;;17.30;99.90;;;;;;5065225;28;20063;-56
2022/10/17 08:39:48;;;;;;;11.23;8.63;;;17.30;99.90;;;;;;5056749;28;21209;-57
2022/10/17 08:42:44;;;;;;;12.32;7.68;;;17.30;99.90;;;;;;5065205;28;20061;-56
2022/10/17 08:45:44;;;;;;;8.80;7.90;;;17.30;99.90;;;;;;5058889;28;20040;-56
2022/10/17 08:48:15;;;;;;;9.00;7.82;;;17.30;99.90;;;;;;5053245;28;20052;-56
2022/10/17 08:50:55;;;;;;;10.10;7.82;;;17.30;99.90;;;;;;5062387;28;20040;-57
2022/10/17 08:53:38;;;;;;;8.20;7.15;;;17.30;99.90;;;;;;5061354;28;20428;-56
2022/10/17 08:56:19;;;;;;;10.32;7.50;;;17.40;99.90;;;;;;5065191;28;20037;-56
2022/10/17 08:58:45;;;;;;;9.30;7.30;;;17.40;99.90;;;;;;5060302;28;20045;-57
2022/10/17 09:01:38;;;;;;;11.00;7.45;;;17.40;99.90;;;;;;5060556;28;20048;-57
2022/10/17 09:04:36;;;;;;;8.65;7.03;;;17.40;99.90;;;;;;5062081;28;20060;-57
2022/10/17 09:07:40;;;;;;;9.15;7.30;;;17.30;99.90;;;;;;5062294;28;20110;-56
2022/10/17 09:10:26;;;;;;;11.57;7.57;;;17.40;99.90;;;;;;5061522;28;21225;-55
2022/10/17 09:13:12;;;;;;;11.38;7.20;;;17.40;99.90;;;;;;5059890;28;20045;-55
2022/10/17 09:16:03;;;;;;;11.18;6.57;;;17.40;99.90;;;;;;5056245;28;20044;-56
2022/10/17 09:18:39;;;;;;;8.43;6.63;;;17.40;99.90;;;;;;5063769;28;20044;-56
2022/10/17 09:21:19;;;;;;;8.10;6.50;;;17.50;99.90;;;;;;5063465;28;20319;-55
2022/10/17 09:23:53;;;;;;;10.27;6.82;;;17.60;99.90;;;;;;5058590;28;20037;-56
2022/10/17 09:26:19;;;;;;;7.72;7.00;;;17.60;99.90;;;;;;5060643;28;20040;-58
2022/10/17 09:28:57;;;;;;;8.55;6.38;;;17.60;99.90;;;;;;5066702;28;20111;-55
2022/10/17 09:31:27;;;;;;;8.95;7.00;;;17.70;99.90;;;;;;5067607;28;20402;-55
2022/10/17 09:33:55;;;;;;;7.30;6.63;;;17.70;99.90;;;;;;5061225;28;20553;-56
2022/10/17 09:36:23;;;;;;;9.30;6.45;;;17.80;99.90;;;;;;5063430;28;20039;-56
2022/10/17 09:38:55;;;;;;;8.77;6.53;;;17.70;99.90;;;;;;5066028;28;20092;-55
2022/10/17 09:41:43;;;;;;;7.32;6.60;;;17.80;99.90;;;;;;5056818;28;20501;-56
2022/10/17 09:44:35;;;;;;;10.25;6.78;;;17.80;99.90;;;;;;5062032;28;20447;-55
2022/10/17 09:47:17;;;;;;;7.50;6.80;;;17.80;99.90;;;;;;5059867;28;20569;-57
2022/10/17 09:49:45;;;;;;;10.23;6.97;;;17.90;99.90;;;;;;5058343;28;20080;-56
2022/10/17 09:52:38;;;;;;;7.72;6.82;;;17.80;99.90;;;;;;5059687;28;20049;-55
2022/10/17 09:55:19;;;;;;;8.45;7.10;;;17.70;99.90;;;;;;5058059;28;20048;-56
2022/10/17 09:58:14;;;;;;;11.30;6.80;;;17.60;99.90;;;;;;5055790;28;20466;-56
2022/10/17 10:00:44;;;;;;;10.35;6.97;;;17.40;99.90;;;;;;5065097;28;20052;-58
2022/10/17 10:03:13;;;;;;;10.00;7.68;;;17.40;99.90;;;;;;5065839;28;20032;-57
2022/10/17 10:05:40;;;;;;;14.48;8.60;;;17.30;99.90;;;;;;5065847;28;20046;-57
2022/10/17 10:08:14;;;;;;;11.70;8.45;;;17.20;99.90;;;;;;5068887;28;20037;-58
2022/10/17 10:10:43;;;;;;;10.40;8.43;;;17.10;99.90;;;;;;5068877;28;20044;-57
2022/10/17 10:13:14;;;;;;;11.60;8.65;;;17.10;99.90;;;;;;5063454;28;20071;-58
2022/10/17 10:15:48;;;;;;;11.90;8.30;;;16.90;99.90;;;;;;5069192;28;20044;-57
2022/10/17 10:18:23;;;;;;;9.20;8.30;;;17.00;99.90;;;;;;5062136;28;20047;-57
2022/10/17 10:21:09;;;;;;;9.27;8.38;;;17.00;99.90;;;;;;5058846;28;20083;-57
2022/10/17 10:23:38;;;;;;;13.95;9.32;;;16.80;99.90;;;;;;5062046;28;20040;-58
2022/10/17 10:26:17;;;;;;;14.18;8.55;;;16.70;99.90;;;;;;5065322;28;20044;-57
2022/10/17 10:28:52;;;;;;;13.32;8.55;;;16.80;99.90;;;;;;5068528;28;20044;-58
2022/10/17 10:31:32;;;;;;;10.43;8.75;;;16.70;99.90;;;;;;5066689;28;20038;-58
2022/10/17 10:34:01;;;;;;;10.27;8.90;;;16.70;99.90;;;;;;5058018;28;20544;-58
2022/10/17 10:36:42;;;;;;;10.55;8.90;;;16.70;99.90;;;;;;5062755;28;22059;-58
2022/10/17 10:39:37;;;;;;;11.98;10.15;;;16.60;99.90;;;;;;5064500;28;20120;-58
2022/10/17 10:42:07;;;;;;;12.50;10.38;;;16.60;99.90;;;;;;5064875;28;20051;-58
2022/10/17 10:44:35;;;;;;;13.75;9.93;;;16.70;99.90;;;;;;5065093;28;20086;-58
2022/10/17 10:47:19;;;;;;;12.27;9.98;;;16.50;99.90;;;;;;5060313;28;20150;-58
2022/10/17 10:49:45;;;;;;;12.73;9.68;;;16.60;99.90;;;;;;5061123;28;20456;-57
2022/10/17 10:52:19;;;;;;;11.18;9.95;;;16.60;99.90;;;;;;5059579;28;20124;-60
2022/10/17 10:55:03;;;;;;;10.75;9.00;;;16.50;99.90;;;;;;5060208;28;20040;-58
2022/10/17 10:57:34;;;;;;;9.40;8.52;;;16.70;99.90;;;;;;5065727;28;20334;-58
2022/10/17 11:00:11;;;;;;;11.80;10.57;;;16.70;99.90;;;;;;5063189;28;20033;-58
2022/10/17 11:02:58;;;;;;;14.10;10.40;;;16.60;99.90;;;;;;5060284;28;20107;-58
2022/10/17 11:05:58;;;;;;;10.73;9.60;;;16.70;99.90;;;;;;5060485;28;20040;-58
2022/10/17 11:08:39;;;;;;;11.45;10.27;;;16.80;99.90;;;;;;5055891;28;20051;-58
2022/10/17 11:11:23;;;;;;;9.73;8.73;;;16.60;99.90;;;;;;5067525;28;20133;-59
2022/10/17 11:14:03;;;;;;;10.15;8.73;;;16.70;99.90;;;;;;5061361;28;20037;-57
2022/10/17 11:16:38;;;;;;;10.32;9.38;;;16.70;99.90;;;;;;5064057;28;20044;-58
2022/10/17 11:19:13;;;;;;;10.40;9.25;;;16.80;99.90;;;;;;5057645;28;20127;-57
2022/10/17 11:21:45;;;;;;;9.88;8.98;;;16.80;99.90;;;;;;5056934;28;20036;-57
2022/10/17 11:24:27;;;;;;;10.38;9.45;;;16.70;99.90;;;;;;5056499;28;20071;-57
2022/10/17 11:27:06;;;;;;;10.18;9.23;;;16.70;99.90;;;;;;5059166;28;20044;-55
2022/10/17 11:29:35;;;;;;;9.77;8.77;;;16.80;99.90;;;;;;5062608;28;20118;-54
2022/10/17 11:32:14;;;;;;;10.43;8.32;;;16.90;99.90;;;;;;5057808;28;20047;-56
2022/10/17 11:34:44;;;;;;;9.35;7.97;;;16.80;99.90;;;;;;5055248;28;20059;-57
2022/10/17 11:37:25;;;;;;;10.13;7.60;;;16.90;99.90;;;;;;5059608;28;20110;-56
2022/10/17 11:39:55;;;;;;;8.20;7.47;;;17.00;99.90;;;;;;5078297;28;21107;-55
2022/10/17 11:42:26;;;;;;;10.73;8.02;;;17.10;99.90;;;;;;5056787;28;20090;-56
2022/10/17 11:44:59;;;;;;;7.95;7.15;;;17.10;99.90;;;;;;5059863;28;20044;-57
2022/10/17 11:47:24;;;;;;;7.47;6.75;;;17.10;99.90;;;;;;5055056;28;20041;-59
2022/10/17 11:49:56;;;;;;;7.97;6.88;;;17.00;99.90;;;;;;5053221;28;20071;-58
2022/10/17 11:52:40;;;;;;;7.43;6.72;;;17.00;99.90;;;;;;5062208;28;20039;-57
2022/10/17 11:55:20;;;;;;;8.32;6.80;;;17.00;99.90;;;;;;5053091;28;20040;-56
2022/10/17 11:58:02;;;;;;;7.55;6.28;;;16.90;99.90;;;;;;5052035;28;20041;-56
2022/10/17 12:00:52;;;;;;;7.20;6.55;;;16.90;99.90;;;;;;5049012;28;20051;-58
2022/10/17 12:03:23;;;;;;;6.88;6.28;;;16.90;99.90;;;;;;5070348;28;20045;-56
2022/10/17 12:06:16;;;;;;;6.38;5.88;;;16.90;99.90;;;;;;5072011;28;20093;-55
2022/10/17 12:08:51;;;;;;;7.15;6.30;;;16.80;99.90;;;;;;5071645;28;20045;-57
2022/10/17 12:11:39;;;;;;;6.85;6.13;;;16.80;99.90;;;;;;5071000;28;20041;-55
2022/10/17 12:14:33;;;;;;;7.68;6.22;;;16.80;99.90;;;;;;5071442;28;20127;-56
2022/10/17 12:17:00;;;;;;;6.63;5.93;;;16.80;99.90;;;;;;5070486;28;20051;-57
2022/10/17 12:19:32;;;;;;;6.85;6.13;;;16.90;99.90;;;;;;5071803;28;20040;-56
2022/10/17 12:22:18;;;;;;;6.63;6.03;;;16.80;99.90;;;;;;5071755;28;20032;-56
2022/10/17 12:24:53;;;;;;;8.90;6.13;;;16.80;99.90;;;;;;5069375;28;20123;-56
2022/10/17 12:27:35;;;;;;;6.75;6.05;;;16.80;99.90;;;;;;5057979;28;20494;-57
2022/10/17 12:30:24;;;;;;;7.95;6.47;;;16.80;99.90;;;;;;5084278;28;20044;-57
2022/10/17 12:32:56;;;;;;;7.03;6.32;;;17.00;99.90;;;;;;5074624;28;20060;-56
2022/10/17 12:35:24;;;;;;;8.25;6.57;;;16.90;99.90;;;;;;5091718;28;20079;-57
2022/10/17 12:37:50;;;;;;;7.35;6.68;;;17.00;99.90;;;;;;5090964;28;20051;-58
2022/10/17 12:40:33;;;;;;;6.72;6.07;;;17.10;99.90;;;;;;5080020;28;20048;-57
2022/10/17 12:43:20;;;;;;;7.13;6.43;;;17.30;99.90;;;;;;5090805;28;20067;-57
2022/10/17 12:45:50;;;;;;;7.67;6.37;;;17.30;99.90;;;;;;5084976;28;20060;-57
2022/10/17 12:48:40;;;;;;;7.28;6.07;;;17.40;99.90;;;;;;5077621;28;20124;-56
2022/10/17 12:51:13;;;;;;;7.60;5.72;;;17.50;99.90;;;;;;5091051;28;20063;-55
2022/10/17 12:53:46;;;;;;;7.28;5.90;;;17.40;99.90;;;;;;5083366;28;20064;-57
2022/10/17 12:56:13;;;;;;;6.57;5.80;;;17.40;99.90;;;;;;5069829;28;20570;-58
2022/10/17 12:58:45;;;;;;;6.15;5.55;;;17.40;99.90;;;;;;5071301;28;20036;-57
2022/10/17 13:01:31;;;;;;;6.57;5.82;;;17.40;99.90;;;;;;5064888;28;20063;-57